sensor_id;sensor_type;location;lat;lon;timestamp;pressure;altitude;pressure_sealevel;temperature;humidity
80747;BME280;70144;50.218;14.322;2023-09-19T00:00:19;98455.59;;;17.58;71.25
80747;BME280;70144;50.218;14.322;2023-09-19T00:02:51;98458.94;;;17.52;71.99
80747;BME280;70144;50.218;14.322;2023-09-19T00:05:17;98470.09;;;17.31;72.84
80747;BME280;70144;50.218;14.322;2023-09-19T00:07:42;98469.41;;;17.34;73.13
80747;BME280;70144;50.218;14.322;2023-09-19T00:10:07;98469.75;;;17.33;71.31
80747;BME280;70144;50.218;14.322;2023-09-19T00:12:35;98471.25;;;17.30;73.13
80747;BME280;70144;50.218;14.322;2023-09-19T00:15:00;98462.38;;;17.24;72.45
80747;BME280;70144;50.218;14.322;2023-09-19T00:17:26;98471.03;;;17.23;73.80
80747;BME280;70144;50.218;14.322;2023-09-19T00:19:55;98470.44;;;17.30;72.68
80747;BME280;70144;50.218;14.322;2023-09-19T00:22:21;98476.22;;;17.37;72.22
80747;BME280;70144;50.218;14.322;2023-09-19T00:24:46;98483.13;;;17.31;71.96
80747;BME280;70144;50.218;14.322;2023-09-19T00:27:11;98472.72;;;17.27;72.05
80747;BME280;70144;50.218;14.322;2023-09-19T00:29:36;98468.59;;;17.21;73.00
80747;BME280;70144;50.218;14.322;2023-09-19T00:32:02;98471.81;;;17.23;73.05
80747;BME280;70144;50.218;14.322;2023-09-19T00:34:30;98473.53;;;17.28;73.05
80747;BME280;70144;50.218;14.322;2023-09-19T00:36:56;98477.13;;;17.28;71.99
80747;BME280;70144;50.218;14.322;2023-09-19T00:39:21;98469.41;;;17.22;73.20
80747;BME280;70144;50.218;14.322;2023-09-19T00:41:47;98466.16;;;17.08;72.24
80747;BME280;70144;50.218;14.322;2023-09-19T00:44:12;98475.50;;;17.15;72.95
80747;BME280;70144;50.218;14.322;2023-09-19T00:46:39;98466.94;;;17.08;71.81
80747;BME280;70144;50.218;14.322;2023-09-19T00:49:04;98460.28;;;17.09;72.34
80747;BME280;70144;50.218;14.322;2023-09-19T00:51:34;98460.97;;;17.06;73.65
80747;BME280;70144;50.218;14.322;2023-09-19T00:54:02;98456.94;;;17.04;73.53
80747;BME280;70144;50.218;14.322;2023-09-19T00:56:28;98468.31;;;17.02;72.23
80747;BME280;70144;50.218;14.322;2023-09-19T00:58:53;98466.69;;;17.01;73.37
80747;BME280;70144;50.218;14.322;2023-09-19T01:01:20;98460.38;;;17.01;73.25
80747;BME280;70144;50.218;14.322;2023-09-19T01:03:46;98454.16;;;16.92;72.99
80747;BME280;70144;50.218;14.322;2023-09-19T01:06:11;98465.78;;;16.97;74.05
80747;BME280;70144;50.218;14.322;2023-09-19T01:08:37;98457.28;;;17.02;73.70
80747;BME280;70144;50.218;14.322;2023-09-19T01:11:16;98458.97;;;16.95;73.85
80747;BME280;70144;50.218;14.322;2023-09-19T01:16:38;98452.06;;;17.01;73.07
80747;BME280;70144;50.218;14.322;2023-09-19T01:25:13;98448.88;;;17.11;72.87
80747;BME280;70144;50.218;14.322;2023-09-19T01:30:27;98453.00;;;17.05;74.34
80747;BME280;70144;50.218;14.322;2023-09-19T01:32:58;98451.16;;;17.09;73.34
80747;BME280;70144;50.218;14.322;2023-09-19T01:35:24;98447.34;;;17.01;73.08
80747;BME280;70144;50.218;14.322;2023-09-19T01:37:50;98445.41;;;17.02;73.47
80747;BME280;70144;50.218;14.322;2023-09-19T01:40:19;98449.78;;;17.03;74.86
80747;BME280;70144;50.218;14.322;2023-09-19T01:43:03;98457.88;;;17.08;73.62
80747;BME280;70144;50.218;14.322;2023-09-19T01:48:19;98451.53;;;17.07;72.79
80747;BME280;70144;50.218;14.322;2023-09-19T01:51:01;98445.19;;;17.07;74.45
80747;BME280;70144;50.218;14.322;2023-09-19T01:53:37;98445.31;;;17.10;73.25
80747;BME280;70144;50.218;14.322;2023-09-19T01:56:08;98441.94;;;17.05;75.09
80747;BME280;70144;50.218;14.322;2023-09-19T01:58:41;98438.75;;;17.15;73.27
80747;BME280;70144;50.218;14.322;2023-09-19T02:01:10;98431.47;;;17.10;74.70
80747;BME280;70144;50.218;14.322;2023-09-19T02:03:38;98447.13;;;17.06;76.50
80747;BME280;70144;50.218;14.322;2023-09-19T02:06:04;98451.28;;;17.00;75.83
80747;BME280;70144;50.218;14.322;2023-09-19T02:08:30;98439.66;;;17.07;73.91
80747;BME280;70144;50.218;14.322;2023-09-19T02:10:58;98454.16;;;17.16;74.99
80747;BME280;70144;50.218;14.322;2023-09-19T02:13:25;98435.75;;;17.20;75.31
80747;BME280;70144;50.218;14.322;2023-09-19T02:15:51;98443.72;;;17.21;75.10
80747;BME280;70144;50.218;14.322;2023-09-19T02:18:16;98444.28;;;17.27;73.82
80747;BME280;70144;50.218;14.322;2023-09-19T02:20:42;98438.41;;;17.28;74.40
80747;BME280;70144;50.218;14.322;2023-09-19T02:23:08;98434.16;;;17.19;74.97
80747;BME280;70144;50.218;14.322;2023-09-19T02:25:33;98445.31;;;17.22;75.20
80747;BME280;70144;50.218;14.322;2023-09-19T02:28:00;98446.47;;;17.21;74.76
80747;BME280;70144;50.218;14.322;2023-09-19T02:30:29;98447.72;;;17.24;73.79
80747;BME280;70144;50.218;14.322;2023-09-19T02:32:54;98461.22;;;17.25;73.81
80747;BME280;70144;50.218;14.322;2023-09-19T02:35:19;98452.94;;;17.25;74.79
80747;BME280;70144;50.218;14.322;2023-09-19T02:37:46;98455.34;;;17.27;75.58
80747;BME280;70144;50.218;14.322;2023-09-19T02:40:11;98452.13;;;17.25;74.34
80747;BME280;70144;50.218;14.322;2023-09-19T02:42:48;98453.16;;;17.33;72.51
80747;BME280;70144;50.218;14.322;2023-09-19T02:45:16;98457.06;;;17.32;73.81
80747;BME280;70144;50.218;14.322;2023-09-19T02:47:43;98450.28;;;17.29;72.89
80747;BME280;70144;50.218;14.322;2023-09-19T02:50:09;98461.13;;;17.34;74.04
80747;BME280;70144;50.218;14.322;2023-09-19T02:52:38;98466.19;;;17.32;72.79
80747;BME280;70144;50.218;14.322;2023-09-19T02:55:09;98452.59;;;17.27;73.90
80747;BME280;70144;50.218;14.322;2023-09-19T02:57:35;98458.00;;;17.36;74.29
80747;BME280;70144;50.218;14.322;2023-09-19T03:00:02;98456.03;;;17.36;73.68
80747;BME280;70144;50.218;14.322;2023-09-19T03:02:27;98462.50;;;17.40;72.96
80747;BME280;70144;50.218;14.322;2023-09-19T03:04:53;98462.28;;;17.45;73.93
80747;BME280;70144;50.218;14.322;2023-09-19T03:07:19;98456.75;;;17.45;73.50
80747;BME280;70144;50.218;14.322;2023-09-19T03:09:44;98450.88;;;17.35;73.03
80747;BME280;70144;50.218;14.322;2023-09-19T03:12:10;98466.78;;;17.38;73.02
80747;BME280;70144;50.218;14.322;2023-09-19T03:14:36;98455.13;;;17.32;73.41
80747;BME280;70144;50.218;14.322;2023-09-19T03:17:01;98461.13;;;17.34;72.95
80747;BME280;70144;50.218;14.322;2023-09-19T03:19:30;98462.84;;;17.26;73.30
80747;BME280;70144;50.218;14.322;2023-09-19T03:21:55;98463.19;;;17.25;74.65
80747;BME280;70144;50.218;14.322;2023-09-19T03:24:22;98464.56;;;17.19;74.67
80747;BME280;70144;50.218;14.322;2023-09-19T03:26:48;98455.09;;;17.20;72.97
80747;BME280;70144;50.218;14.322;2023-09-19T03:29:14;98466.16;;;17.20;74.92
80747;BME280;70144;50.218;14.322;2023-09-19T03:31:39;98471.69;;;17.20;72.82
80747;BME280;70144;50.218;14.322;2023-09-19T03:34:04;98459.69;;;17.16;74.54
80747;BME280;70144;50.218;14.322;2023-09-19T03:36:30;98456.94;;;17.16;75.88
80747;BME280;70144;50.218;14.322;2023-09-19T03:38:55;98459.69;;;17.16;73.15
80747;BME280;70144;50.218;14.322;2023-09-19T03:41:21;98460.06;;;17.14;72.97
80747;BME280;70144;50.218;14.322;2023-09-19T03:43:46;98471.81;;;17.23;73.39
80747;BME280;70144;50.218;14.322;2023-09-19T03:46:11;98469.03;;;17.23;74.48
80747;BME280;70144;50.218;14.322;2023-09-19T03:48:40;98464.56;;;17.19;74.38
80747;BME280;70144;50.218;14.322;2023-09-19T03:51:05;98458.44;;;17.13;74.28
80747;BME280;70144;50.218;14.322;2023-09-19T03:53:31;98470.31;;;17.14;74.79
80747;BME280;70144;50.218;14.322;2023-09-19T03:55:56;98460.28;;;17.09;73.55
80747;BME280;70144;50.218;14.322;2023-09-19T03:58:22;98472.94;;;17.10;74.53
80747;BME280;70144;50.218;14.322;2023-09-19T04:00:48;98469.59;;;17.05;75.11
80747;BME280;70144;50.218;14.322;2023-09-19T04:03:15;98457.59;;;17.01;73.21
80747;BME280;70144;50.218;14.322;2023-09-19T04:05:45;98473.66;;;17.07;74.70
80747;BME280;70144;50.218;14.322;2023-09-19T04:08:12;98473.75;;;17.11;74.58
80747;BME280;70144;50.218;14.322;2023-09-19T04:10:37;98475.72;;;17.10;73.73
80747;BME280;70144;50.218;14.322;2023-09-19T04:13:02;98486.56;;;17.15;73.22
80747;BME280;70144;50.218;14.322;2023-09-19T04:15:29;98494.25;;;17.10;75.73
80747;BME280;70144;50.218;14.322;2023-09-19T04:17:54;98480.19;;;17.03;75.36
80747;BME280;70144;50.218;14.322;2023-09-19T04:20:20;98493.69;;;17.04;75.19
80747;BME280;70144;50.218;14.322;2023-09-19T04:22:48;98495.84;;;16.99;74.35
80747;BME280;70144;50.218;14.322;2023-09-19T04:25:14;98498.28;;;17.00;74.98
80747;BME280;70144;50.218;14.322;2023-09-19T04:27:39;98502.63;;;17.01;74.68
80747;BME280;70144;50.218;14.322;2023-09-19T04:30:07;98500.25;;;17.00;74.76
80747;BME280;70144;50.218;14.322;2023-09-19T04:32:40;98507.97;;;17.06;73.88
80747;BME280;70144;50.218;14.322;2023-09-19T04:35:09;98505.19;;;17.06;73.47
80747;BME280;70144;50.218;14.322;2023-09-19T04:37:41;98498.41;;;17.04;74.17
80747;BME280;70144;50.218;14.322;2023-09-19T04:40:08;98513.16;;;17.08;74.23
80747;BME280;70144;50.218;14.322;2023-09-19T04:42:38;98515.00;;;17.04;74.97
80747;BME280;70144;50.218;14.322;2023-09-19T04:45:03;98524.34;;;17.11;73.25
80747;BME280;70144;50.218;14.322;2023-09-19T04:47:30;98513.38;;;17.03;74.00
80747;BME280;70144;50.218;14.322;2023-09-19T04:49:55;98515.25;;;17.11;73.22
80747;BME280;70144;50.218;14.322;2023-09-19T04:52:22;98510.72;;;17.06;73.74
80747;BME280;70144;50.218;14.322;2023-09-19T04:54:47;98521.56;;;17.11;73.03
80747;BME280;70144;50.218;14.322;2023-09-19T04:57:13;98520.84;;;17.02;73.96
80747;BME280;70144;50.218;14.322;2023-09-19T04:59:39;98534.34;;;17.04;74.21
80747;BME280;70144;50.218;14.322;2023-09-19T05:02:06;98534.66;;;17.02;73.97
80747;BME280;70144;50.218;14.322;2023-09-19T05:04:33;98542.97;;;17.02;75.31
80747;BME280;70144;50.218;14.322;2023-09-19T05:06:59;98543.78;;;17.03;75.90
80747;BME280;70144;50.218;14.322;2023-09-19T05:09:26;98554.16;;;17.06;75.28
80747;BME280;70144;50.218;14.322;2023-09-19T05:11:51;98559.47;;;17.11;75.43
80747;BME280;70144;50.218;14.322;2023-09-19T05:14:18;98549.09;;;17.08;73.67
80747;BME280;70144;50.218;14.322;2023-09-19T05:16:43;98549.69;;;17.13;74.19
80747;BME280;70144;50.218;14.322;2023-09-19T05:19:08;98548.06;;;17.12;73.70
80747;BME280;70144;50.218;14.322;2023-09-19T05:21:36;98552.25;;;17.18;73.84
80747;BME280;70144;50.218;14.322;2023-09-19T05:24:06;98551.75;;;17.16;74.24
80747;BME280;70144;50.218;14.322;2023-09-19T05:26:32;98559.97;;;17.25;74.50
80747;BME280;70144;50.218;14.322;2023-09-19T05:28:58;98545.69;;;17.23;74.44
80747;BME280;70144;50.218;14.322;2023-09-19T05:31:23;98556.75;;;17.23;74.02
80747;BME280;70144;50.218;14.322;2023-09-19T05:33:49;98562.03;;;17.28;74.98
80747;BME280;70144;50.218;14.322;2023-09-19T05:36:15;98562.03;;;17.28;73.73
80747;BME280;70144;50.218;14.322;2023-09-19T05:38:42;98571.84;;;17.25;75.22
80747;BME280;70144;50.218;14.322;2023-09-19T05:41:08;98569.88;;;17.26;75.49
80747;BME280;70144;50.218;14.322;2023-09-19T05:43:34;98576.69;;;17.28;74.24
80747;BME280;70144;50.218;14.322;2023-09-19T05:46:02;98565.97;;;17.27;75.43
80747;BME280;70144;50.218;14.322;2023-09-19T05:48:28;98576.47;;;17.34;75.04
80747;BME280;70144;50.218;14.322;2023-09-19T05:50:53;98562.84;;;17.28;74.66
80747;BME280;70144;50.218;14.322;2023-09-19T05:53:19;98566.22;;;17.34;74.32
80747;BME280;70144;50.218;14.322;2023-09-19T05:55:44;98570.13;;;17.33;75.67
80747;BME280;70144;50.218;14.322;2023-09-19T05:58:10;98575.66;;;17.33;76.15
80747;BME280;70144;50.218;14.322;2023-09-19T06:00:39;98593.19;;;17.37;74.81
80747;BME280;70144;50.218;14.322;2023-09-19T06:03:06;98585.09;;;17.32;74.32
80747;BME280;70144;50.218;14.322;2023-09-19T06:05:32;98592.50;;;17.40;76.42
80747;BME280;70144;50.218;14.322;2023-09-19T06:07:57;98603.69;;;17.44;76.00
80747;BME280;70144;50.218;14.322;2023-09-19T06:10:26;98614.31;;;17.42;76.48
80747;BME280;70144;50.218;14.322;2023-09-19T06:12:52;98610.97;;;17.48;75.56
80747;BME280;70144;50.218;14.322;2023-09-19T06:15:18;98617.31;;;17.49;76.76
80747;BME280;70144;50.218;14.322;2023-09-19T06:17:54;98618.59;;;17.51;75.06
80747;BME280;70144;50.218;14.322;2023-09-19T06:20:20;98624.88;;;17.60;74.56
80747;BME280;70144;50.218;14.322;2023-09-19T06:22:47;98612.34;;;17.54;76.21
80747;BME280;70144;50.218;14.322;2023-09-19T06:25:14;98629.09;;;17.58;74.73
80747;BME280;70144;50.218;14.322;2023-09-19T06:27:48;98631.09;;;17.69;75.06
80747;BME280;70144;50.218;14.322;2023-09-19T06:30:14;98637.34;;;17.79;74.92
80747;BME280;70144;50.218;14.322;2023-09-19T06:32:40;98644.16;;;17.81;75.39
80747;BME280;70144;50.218;14.322;2023-09-19T06:35:09;98647.84;;;17.85;74.32
80747;BME280;70144;50.218;14.322;2023-09-19T06:37:36;98658.63;;;17.99;73.49
80747;BME280;70144;50.218;14.322;2023-09-19T06:40:08;98652.16;;;17.95;74.50
80747;BME280;70144;50.218;14.322;2023-09-19T06:42:35;98665.09;;;18.03;74.84
80747;BME280;70144;50.218;14.322;2023-09-19T06:45:03;98659.28;;;18.08;74.64
80747;BME280;70144;50.218;14.322;2023-09-19T06:47:29;98663.91;;;18.16;71.94
80747;BME280;70144;50.218;14.322;2023-09-19T06:49:55;98673.38;;;18.15;75.06
80747;BME280;70144;50.218;14.322;2023-09-19T06:52:20;98681.69;;;18.27;72.97
80747;BME280;70144;50.218;14.322;2023-09-19T06:54:47;98677.91;;;18.32;74.30
80747;BME280;70144;50.218;14.322;2023-09-19T06:57:15;98684.38;;;18.36;73.90
80747;BME280;70144;50.218;14.322;2023-09-19T06:59:41;98685.63;;;18.38;74.73
80747;BME280;70144;50.218;14.322;2023-09-19T07:02:06;98673.50;;;18.43;73.71
80747;BME280;70144;50.218;14.322;2023-09-19T07:04:31;98684.00;;;18.49;71.50
80747;BME280;70144;50.218;14.322;2023-09-19T07:06:57;98690.63;;;18.57;73.20
80747;BME280;70144;50.218;14.322;2023-09-19T07:09:23;98687.50;;;18.58;72.76
80747;BME280;70144;50.218;14.322;2023-09-19T07:11:49;98700.53;;;18.70;71.88
80747;BME280;70144;50.218;14.322;2023-09-19T07:14:16;98689.78;;;18.81;71.86
80747;BME280;70144;50.218;14.322;2023-09-19T07:16:41;98695.81;;;18.83;72.59
80747;BME280;70144;50.218;14.322;2023-09-19T07:19:09;98710.00;;;18.93;70.94
80747;BME280;70144;50.218;14.322;2023-09-19T07:21:35;98697.50;;;18.87;71.95
80747;BME280;70144;50.218;14.322;2023-09-19T07:24:01;98702.72;;;18.89;71.61
80747;BME280;70144;50.218;14.322;2023-09-19T07:26:27;98697.06;;;18.85;70.97
80747;BME280;70144;50.218;14.322;2023-09-19T07:28:53;98700.75;;;18.89;71.50
80747;BME280;70144;50.218;14.322;2023-09-19T07:31:18;98704.34;;;18.90;72.49
80747;BME280;70144;50.218;14.322;2023-09-19T07:33:44;98710.59;;;18.87;72.54
80747;BME280;70144;50.218;14.322;2023-09-19T07:36:10;98706.84;;;18.95;71.89
80747;BME280;70144;50.218;14.322;2023-09-19T07:38:39;98706.41;;;18.93;72.17
80747;BME280;70144;50.218;14.322;2023-09-19T07:41:04;98703.06;;;18.87;70.78
80747;BME280;70144;50.218;14.322;2023-09-19T07:43:30;98698.69;;;18.86;73.09
80747;BME280;70144;50.218;14.322;2023-09-19T07:45:56;98719.34;;;18.89;73.28
80747;BME280;70144;50.218;14.322;2023-09-19T07:48:22;98725.81;;;18.93;71.82
80747;BME280;70144;50.218;14.322;2023-09-19T07:50:49;98725.00;;;18.92;73.13
80747;BME280;70144;50.218;14.322;2023-09-19T07:53:14;98722.22;;;18.92;72.68
80747;BME280;70144;50.218;14.322;2023-09-19T07:55:42;98718.91;;;18.87;72.70
80747;BME280;70144;50.218;14.322;2023-09-19T07:58:07;98730.31;;;18.97;71.59
80747;BME280;70144;50.218;14.322;2023-09-19T08:00:33;98723.13;;;19.08;70.46
80747;BME280;70144;50.218;14.322;2023-09-19T08:03:00;98727.38;;;19.18;68.81
80747;BME280;70144;50.218;14.322;2023-09-19T08:05:26;98733.03;;;19.22;69.34
80747;BME280;70144;50.218;14.322;2023-09-19T08:07:51;98734.75;;;19.26;68.86
80747;BME280;70144;50.218;14.322;2023-09-19T08:10:17;98737.28;;;19.31;69.93
80747;BME280;70144;50.218;14.322;2023-09-19T08:12:45;98741.66;;;19.44;68.71
80747;BME280;70144;50.218;14.322;2023-09-19T08:15:15;98741.19;;;19.54;69.91
80747;BME280;70144;50.218;14.322;2023-09-19T08:17:41;98741.69;;;19.72;68.48
80747;BME280;70144;50.218;14.322;2023-09-19T08:20:09;98745.69;;;20.02;67.04
80747;BME280;70144;50.218;14.322;2023-09-19T08:22:52;98744.31;;;20.40;66.85
80747;BME280;70144;50.218;14.322;2023-09-19T08:25:19;98743.88;;;20.53;65.23
80747;BME280;70144;50.218;14.322;2023-09-19T08:27:45;98754.91;;;20.66;64.19
80747;BME280;70144;50.218;14.322;2023-09-19T08:30:14;98751.59;;;20.44;65.07
80747;BME280;70144;50.218;14.322;2023-09-19T08:32:40;98747.09;;;20.40;64.55
80747;BME280;70144;50.218;14.322;2023-09-19T08:35:08;98749.78;;;20.36;67.64
80747;BME280;70144;50.218;14.322;2023-09-19T08:37:34;98748.88;;;20.32;65.65
80747;BME280;70144;50.218;14.322;2023-09-19T08:39:59;98753.84;;;20.39;64.63
80747;BME280;70144;50.218;14.322;2023-09-19T08:42:25;98747.53;;;20.26;66.12
80747;BME280;70144;50.218;14.322;2023-09-19T08:44:50;98760.00;;;20.32;66.54
80747;BME280;70144;50.218;14.322;2023-09-19T08:47:29;98756.97;;;20.37;64.83
80747;BME280;70144;50.218;14.322;2023-09-19T08:50:10;98761.47;;;20.42;64.45
80747;BME280;70144;50.218;14.322;2023-09-19T08:52:43;98762.44;;;20.49;64.32
80747;BME280;70144;50.218;14.322;2023-09-19T08:55:11;98770.41;;;20.67;64.49
80747;BME280;70144;50.218;14.322;2023-09-19T08:57:38;98764.16;;;20.70;63.42
80747;BME280;70144;50.218;14.322;2023-09-19T09:00:07;98778.09;;;20.89;61.99
80747;BME280;70144;50.218;14.322;2023-09-19T09:02:38;98777.59;;;20.68;63.24
80747;BME280;70144;50.218;14.322;2023-09-19T09:05:07;98759.59;;;20.62;63.41
80747;BME280;70144;50.218;14.322;2023-09-19T09:07:38;98758.44;;;20.97;61.10
80747;BME280;70144;50.218;14.322;2023-09-19T09:10:04;98753.78;;;21.01;61.56
80747;BME280;70144;50.218;14.322;2023-09-19T09:12:29;98753.22;;;21.85;62.15
80747;BME280;70144;50.218;14.322;2023-09-19T09:14:55;98764.03;;;22.70;58.81
80747;BME280;70144;50.218;14.322;2023-09-19T09:17:25;98756.22;;;22.60;58.38
80747;BME280;70144;50.218;14.322;2023-09-19T09:19:53;98768.69;;;22.43;58.94
80747;BME280;70144;50.218;14.322;2023-09-19T09:22:19;98771.72;;;22.35;59.61
80747;BME280;70144;50.218;14.322;2023-09-19T09:27:19;98765.63;;;22.07;59.48
80747;BME280;70144;50.218;14.322;2023-09-19T09:29:47;98758.56;;;23.30;56.16
80747;BME280;70144;50.218;14.322;2023-09-19T09:32:21;98770.50;;;25.04;52.42
80747;BME280;70144;50.218;14.322;2023-09-19T09:34:52;98772.81;;;26.71;49.22
80747;BME280;70144;50.218;14.322;2023-09-19T09:37:18;98769.41;;;27.97;43.80
80747;BME280;70144;50.218;14.322;2023-09-19T09:39:58;98772.13;;;28.87;42.35
80747;BME280;70144;50.218;14.322;2023-09-19T09:42:36;98748.59;;;29.04;37.70
80747;BME280;70144;50.218;14.322;2023-09-19T09:45:24;98761.03;;;30.19;37.88
80747;BME280;70144;50.218;14.322;2023-09-19T09:47:59;98750.47;;;31.27;36.12
80747;BME280;70144;50.218;14.322;2023-09-19T09:50:32;98752.47;;;31.89;34.62
80747;BME280;70144;50.218;14.322;2023-09-19T09:53:04;98759.38;;;32.79;34.13
80747;BME280;70144;50.218;14.322;2023-09-19T09:56:09;98761.75;;;33.29;33.77
80747;BME280;70144;50.218;14.322;2023-09-19T10:01:05;98752.72;;;32.18;35.66
80747;BME280;70144;50.218;14.322;2023-09-19T10:03:38;98753.59;;;31.75;37.52
80747;BME280;70144;50.218;14.322;2023-09-19T10:06:12;98750.28;;;30.64;37.19
80747;BME280;70144;50.218;14.322;2023-09-19T10:09:08;98758.28;;;31.62;36.54
80747;BME280;70144;50.218;14.322;2023-09-19T10:11:47;98751.47;;;31.60;34.43
80747;BME280;70144;50.218;14.322;2023-09-19T10:14:20;98748.84;;;31.88;33.09
80747;BME280;70144;50.218;14.322;2023-09-19T10:16:49;98743.03;;;30.63;33.28
80747;BME280;70144;50.218;14.322;2023-09-19T10:19:21;98759.22;;;30.86;36.34
80747;BME280;70144;50.218;14.322;2023-09-19T10:21:50;98755.03;;;31.64;33.65
80747;BME280;70144;50.218;14.322;2023-09-19T10:24:17;98775.31;;;31.35;35.12
80747;BME280;70144;50.218;14.322;2023-09-19T10:26:43;98757.97;;;29.73;36.03
80747;BME280;70144;50.218;14.322;2023-09-19T10:29:13;98762.28;;;29.47;36.12
80747;BME280;70144;50.218;14.322;2023-09-19T10:31:42;98756.38;;;30.36;35.73
80747;BME280;70144;50.218;14.322;2023-09-19T10:34:12;98761.28;;;31.75;30.79
80747;BME280;70144;50.218;14.322;2023-09-19T10:36:42;98755.47;;;32.73;29.72
80747;BME280;70144;50.218;14.322;2023-09-19T10:39:10;98757.16;;;33.93;27.38
80747;BME280;70144;50.218;14.322;2023-09-19T10:41:37;98752.72;;;33.18;27.77
80747;BME280;70144;50.218;14.322;2023-09-19T10:44:04;98762.31;;;34.11;29.89
80747;BME280;70144;50.218;14.322;2023-09-19T10:46:32;98745.03;;;35.32;24.98
80747;BME280;70144;50.218;14.322;2023-09-19T10:49:02;98753.91;;;36.33;23.09
80747;BME280;70144;50.218;14.322;2023-09-19T10:51:39;98757.78;;;36.88;24.46
80747;BME280;70144;50.218;14.322;2023-09-19T10:54:12;98760.44;;;37.23;24.54
80747;BME280;70144;50.218;14.322;2023-09-19T10:56:49;98760.47;;;37.77;21.96
80747;BME280;70144;50.218;14.322;2023-09-19T10:59:19;98763.59;;;38.25;23.33
80747;BME280;70144;50.218;14.322;2023-09-19T11:01:53;98748.97;;;38.74;22.20
80747;BME280;70144;50.218;14.322;2023-09-19T11:04:31;98755.41;;;36.87;21.54
80747;BME280;70144;50.218;14.322;2023-09-19T11:07:10;98752.25;;;35.11;25.56
80747;BME280;70144;50.218;14.322;2023-09-19T11:09:55;98755.41;;;33.83;28.49
80747;BME280;70144;50.218;14.322;2023-09-19T11:26:44;98751.06;;;37.13;22.27
80747;BME280;70144;50.218;14.322;2023-09-19T11:29:30;98763.00;;;38.12;19.49
80747;BME280;70144;50.218;14.322;2023-09-19T11:31:56;98763.44;;;39.36;18.39
80747;BME280;70144;50.218;14.322;2023-09-19T11:40:08;98745.63;;;39.08;16.67
80747;BME280;70144;50.218;14.322;2023-09-19T11:42:46;98751.75;;;38.59;15.27
80747;BME280;70144;50.218;14.322;2023-09-19T11:48:12;98754.88;;;38.19;14.31
80747;BME280;70144;50.218;14.322;2023-09-19T11:50:42;98752.84;;;38.11;15.11
80747;BME280;70144;50.218;14.322;2023-09-19T11:53:11;98746.72;;;38.36;16.19
80747;BME280;70144;50.218;14.322;2023-09-19T11:55:38;98751.72;;;37.90;16.44
80747;BME280;70144;50.218;14.322;2023-09-19T11:58:04;98754.50;;;39.43;18.43
80747;BME280;70144;50.218;14.322;2023-09-19T12:00:31;98749.34;;;40.24;15.72
80747;BME280;70144;50.218;14.322;2023-09-19T12:03:04;98741.03;;;40.90;14.31
80747;BME280;70144;50.218;14.322;2023-09-19T12:05:33;98754.03;;;40.86;14.97
80747;BME280;70144;50.218;14.322;2023-09-19T12:07:59;98748.72;;;40.64;13.42
80747;BME280;70144;50.218;14.322;2023-09-19T12:10:24;98751.69;;;40.40;15.03
80747;BME280;70144;50.218;14.322;2023-09-19T12:12:50;98756.13;;;39.59;14.43
80747;BME280;70144;50.218;14.322;2023-09-19T12:15:23;98737.97;;;36.85;17.66
80747;BME280;70144;50.218;14.322;2023-09-19T12:17:50;98736.50;;;35.32;19.06
80747;BME280;70144;50.218;14.322;2023-09-19T12:20:15;98737.06;;;35.61;20.01
80747;BME280;70144;50.218;14.322;2023-09-19T12:22:43;98741.94;;;35.95;19.61
80747;BME280;70144;50.218;14.322;2023-09-19T12:25:09;98740.03;;;36.84;18.25
80747;BME280;70144;50.218;14.322;2023-09-19T12:27:43;98752.50;;;35.04;19.41
80747;BME280;70144;50.218;14.322;2023-09-19T12:30:10;98744.41;;;33.56;20.53
80747;BME280;70144;50.218;14.322;2023-09-19T12:32:39;98741.75;;;32.72;23.12
80747;BME280;70144;50.218;14.322;2023-09-19T12:35:06;98728.63;;;34.38;21.21
80747;BME280;70144;50.218;14.322;2023-09-19T12:37:45;98735.38;;;35.64;19.76
80747;BME280;70144;50.218;14.322;2023-09-19T12:40:18;98732.59;;;36.96;18.57
80747;BME280;70144;50.218;14.322;2023-09-19T12:42:50;98725.69;;;34.67;22.00
80747;BME280;70144;50.218;14.322;2023-09-19T12:45:17;98720.78;;;34.93;19.53
80747;BME280;70144;50.218;14.322;2023-09-19T12:51:02;98718.03;;;35.36;20.28
80747;BME280;70144;50.218;14.322;2023-09-19T12:53:36;98723.78;;;34.10;22.35
80747;BME280;70144;50.218;14.322;2023-09-19T12:56:06;98716.50;;;35.10;20.82
80747;BME280;70144;50.218;14.322;2023-09-19T12:58:34;98707.19;;;35.44;20.76
80747;BME280;70144;50.218;14.322;2023-09-19T13:01:00;98722.44;;;35.93;17.98
80747;BME280;70144;50.218;14.322;2023-09-19T13:03:27;98716.69;;;36.06;19.06
80747;BME280;70144;50.218;14.322;2023-09-19T13:06:02;98718.13;;;36.41;17.82
80747;BME280;70144;50.218;14.322;2023-09-19T13:08:31;98723.16;;;34.44;19.29
80747;BME280;70144;50.218;14.322;2023-09-19T13:11:13;98720.56;;;34.49;19.22
80747;BME280;70144;50.218;14.322;2023-09-19T13:16:11;98717.34;;;33.68;20.87
80747;BME280;70144;50.218;14.322;2023-09-19T13:18:52;98706.72;;;32.46;23.06
80747;BME280;70144;50.218;14.322;2023-09-19T13:21:39;98708.75;;;32.46;22.77
80747;BME280;70144;50.218;14.322;2023-09-19T13:24:24;98707.13;;;32.80;21.96
80747;BME280;70144;50.218;14.322;2023-09-19T13:26:55;98719.09;;;32.72;22.62
80747;BME280;70144;50.218;14.322;2023-09-19T13:29:20;98705.88;;;32.98;22.87
80747;BME280;70144;50.218;14.322;2023-09-19T13:31:50;98709.75;;;32.88;22.54
80747;BME280;70144;50.218;14.322;2023-09-19T13:34:18;98708.97;;;31.83;24.27
80747;BME280;70144;50.218;14.322;2023-09-19T13:36:44;98706.91;;;30.78;24.53
80747;BME280;70144;50.218;14.322;2023-09-19T13:39:09;98702.81;;;30.56;24.86
80747;BME280;70144;50.218;14.322;2023-09-19T13:41:35;98702.88;;;30.52;25.44
80747;BME280;70144;50.218;14.322;2023-09-19T13:44:04;98711.41;;;30.99;25.53